LFRO/LAI METAR and TAF weather

Enter ICAO airport designator
Station Type Date Time Source
LFRO METAR 2020/06/06 01:30 UTC NOAA

LFRO 060130Z AUTO 30010KT 9999 FEW021 12/08 Q1005


Station Type Date Time Source
LFRO Decoded METAR 2020/06/06 01:30 UTC NOAA

Lannion / Servel, France (LFRO) 48-45N 003-28W
Jun 05, 2020 - 09:30 PM EDT / 2020.06.06 0130 UTC
Wind: from the WNW (300 degrees) at 12 MPH (10 KT):0
Visibility: greater than 7 mile(s):0
Sky conditions: mostly clear
Temperature: 53 F (12 C)
Dew Point: 46 F (8 C)
Relative Humidity: 76%
Pressure (altimeter): 29.68 in. Hg (1005 hPa)
ob: LFRO 060130Z AUTO 30010KT 9999 FEW021 12/08 Q1005
cycle: 1

Station Type Date Time Source
LFRO TAF 2019/05/15 19:06 UTC NOAA

TAF LFRO 151936Z 1519/1612 CNL

Example: see airport list